www.meteoamater.cz
Weather data: current steda, 01.02.2023 16:00
Date Time Temperature Humidity Barometer Wind Sunshine ET UV - Index Solar Dewpoint Wind chill Wind gust
01.02.2023 16:00 0,1 C 95 % 1011,2 hPa 2,3 km/h (1 Bft) 0 min 0,000 mm 0,0 UV-I 0 W/m2 -0,6 C 0,1 C 7,7 km/h (2 Bft)
01.02.2023 15:00 0,2 C 95 % 1011,3 hPa 2,3 km/h (1 Bft) 0 min 0,000 mm 0,0 UV-I 4 W/m2 -0,5 C 0,2 C 9,7 km/h (2 Bft)
01.02.2023 14:00 0,5 C 95 % 1011,1 hPa 4,0 km/h (1 Bft) 0 min 0,000 mm 0,0 UV-I 20 W/m2 -0,2 C 0,5 C 17,4 km/h (3 Bft)
01.02.2023 13:00 0,2 C 94 % 1011,0 hPa 5,9 km/h (2 Bft) 0 min 0,000 mm 0,0 UV-I 11 W/m2 -0,6 C -1,8 C 23,2 km/h (4 Bft)
01.02.2023 12:00 0,1 C 94 % 1010,9 hPa 4,1 km/h (1 Bft) 0 min 0,000 mm 0,0 UV-I 5 W/m2 -0,7 C 0,1 C 15,4 km/h (3 Bft)
01.02.2023 11:00 0,1 C 93 % 1011,5 hPa 5,5 km/h (1 Bft) 0 min 0,000 mm 0,0 UV-I 2 W/m2 -0,9 C -1,7 C 17,4 km/h (3 Bft)
01.02.2023 10:00 0,3 C 92 % 1011,5 hPa 4,5 km/h (1 Bft) 0 min 0,000 mm 0,0 UV-I 24 W/m2 -0,8 C 0,3 C 13,5 km/h (3 Bft)
01.02.2023 09:00 0,1 C 91 % 1012,1 hPa 8,2 km/h (2 Bft) 0 min 0,000 mm 0,0 UV-I 12 W/m2 -1,2 C -2,7 C 21,2 km/h (4 Bft)
01.02.2023 08:00 0,3 C 90 % 1012,2 hPa 4,9 km/h (1 Bft) 0 min 0,000 mm 0,0 UV-I 0 W/m2 -1,1 C -1,2 C 25,1 km/h (4 Bft)
01.02.2023 07:00 0,3 C 90 % 1012,4 hPa 0,0 km/h (0 Bft) 0 min 0,000 mm 0,0 UV-I 0 W/m2 -1,1 C 0,3 C 0,0 km/h (0 Bft)
01.02.2023 06:00 0,3 C 90 % 1012,7 hPa 3,3 km/h (1 Bft) 0 min 0,000 mm 0,0 UV-I 0 W/m2 -1,1 C 0,3 C 15,4 km/h (3 Bft)
01.02.2023 05:00 0,4 C 90 % 1013,3 hPa 3,9 km/h (1 Bft) 0 min 0,000 mm 0,0 UV-I 0 W/m2 -1,0 C 0,4 C 15,4 km/h (3 Bft)
01.02.2023 04:00 0,4 C 91 % 1013,5 hPa 0,9 km/h (0 Bft) 0 min 0,000 mm 0,0 UV-I 0 W/m2 -0,9 C 0,4 C 7,7 km/h (2 Bft)
01.02.2023 03:00 0,5 C 93 % 1013,7 hPa 3,0 km/h (1 Bft) 0 min 0,000 mm 0,0 UV-I 0 W/m2 -0,5 C 0,5 C 21,2 km/h (4 Bft)
01.02.2023 02:00 0,3 C 95 % 1013,6 hPa 1,4 km/h (1 Bft) 0 min 0,000 mm 0,0 UV-I 0 W/m2 -0,4 C 0,3 C 13,5 km/h (3 Bft)
01.02.2023 01:00 0,4 C 95 % 1013,2 hPa 4,1 km/h (1 Bft) 0 min 0,000 mm 0,0 UV-I 0 W/m2 -0,3 C 0,4 C 15,4 km/h (3 Bft)
01.02.2023 00:00 0,4 C 95 % 1013,4 hPa 9,1 km/h (2 Bft) 0 min 0,000 mm 0,0 UV-I 0 W/m2 -0,3 C -2,6 C 30,9 km/h (5 Bft)
31.01.2023 23:00 0,3 C 95 % 1013,3 hPa 4,4 km/h (1 Bft) 0 min 0,000 mm 0,0 UV-I 0 W/m2 -0,4 C 0,3 C 13,5 km/h (3 Bft)
31.01.2023 22:00 0,1 C 95 % 1013,6 hPa 1,7 km/h (1 Bft) 0 min 0,000 mm 0,0 UV-I 0 W/m2 -0,6 C 0,1 C 9,7 km/h (2 Bft)
31.01.2023 21:00 -0,1 C 95 % 1013,6 hPa 1,7 km/h (1 Bft) 0 min 0,000 mm 0,0 UV-I 0 W/m2 -0,8 C -0,1 C 11,6 km/h (2 Bft)
31.01.2023 20:00 -0,2 C 95 % 1013,8 hPa 3,8 km/h (1 Bft) 0 min 0,000 mm 0,0 UV-I 0 W/m2 -0,9 C -0,2 C 9,7 km/h (2 Bft)
31.01.2023 19:00 -0,4 C 95 % 1014,1 hPa 1,0 km/h (0 Bft) 0 min 0,000 mm 0,0 UV-I 0 W/m2 -1,1 C -0,4 C 5,8 km/h (2 Bft)
31.01.2023 18:00 -0,4 C 94 % 1014,4 hPa 5,4 km/h (1 Bft) 0 min 0,000 mm 0,0 UV-I 0 W/m2 -1,2 C -2,2 C 11,6 km/h (2 Bft)
31.01.2023 17:00 -0,3 C 94 % 1014,5 hPa 3,6 km/h (1 Bft) 0 min 0,000 mm 0,0 UV-I 0 W/m2 -1,1 C -0,3 C 15,4 km/h (3 Bft)
_ Min-Time 19:15 08:15 13:10 07:00 - - - - 18:55 13:30 07:00
Minimum _ -0,4 C 90 % 1010,7 hPa 0,0 km/h (0 Bft) - - - - -1,2 C -3,1 C 0,0 km/h (0 Bft)
_ Max-Time 14:10 16:00 17:45 13:30 16:00 16:00 16:00 09:45 14:05 14:10 13:30
Maximum _ 0,5 C 95 % 1014,7 hPa 10,1 km/h
N-NW (2 Bft)
0 min 0,000 mm 0,0 UV-I 28 W/m2 -0,2 C 0,5 C 44,4 km/h
W-NW (6 Bft)
Average _ 0,1 C 93 % 1012,9 hPa 4,0 km/h (1 Bft) #0 min. #0,000 mm 0,0 UV-I 11 W/m2 -0,8 C -0,6 C 14,9 km/h (3 Bft)
©2007-2023 Meteoamater.cz